sensor_id;sensor_type;location;lat;lon;timestamp;pressure;altitude;pressure_sealevel;temperature;humidity
52957;BME280;38819;42.692;23.342;2023-08-17T00:01:39;95366.00;;;24.17;63.29
52957;BME280;38819;42.692;23.342;2023-08-17T00:04:04;95375.84;;;24.14;63.29
52957;BME280;38819;42.692;23.342;2023-08-17T00:06:29;95374.63;;;24.12;63.37
52957;BME280;38819;42.692;23.342;2023-08-17T00:08:55;95369.88;;;24.12;63.26
52957;BME280;38819;42.692;23.342;2023-08-17T00:11:21;95371.41;;;24.06;63.32
52957;BME280;38819;42.692;23.342;2023-08-17T00:13:46;95367.91;;;24.09;63.07
52957;BME280;38819;42.692;23.342;2023-08-17T00:16:12;95371.75;;;24.01;63.33
52957;BME280;38819;42.692;23.342;2023-08-17T00:18:37;95371.00;;;24.04;63.19
52957;BME280;38819;42.692;23.342;2023-08-17T00:21:03;95374.84;;;23.96;63.54
52957;BME280;38819;42.692;23.342;2023-08-17T00:23:29;95364.13;;;23.91;63.59
52957;BME280;38819;42.692;23.342;2023-08-17T00:25:54;95371.63;;;23.94;63.45
52957;BME280;38819;42.692;23.342;2023-08-17T00:28:19;95379.91;;;23.94;63.25
52957;BME280;38819;42.692;23.342;2023-08-17T00:30:45;95376.66;;;23.84;63.60
52957;BME280;38819;42.692;23.342;2023-08-17T00:33:10;95367.50;;;23.80;63.56
52957;BME280;38819;42.692;23.342;2023-08-17T00:35:35;95369.06;;;23.78;63.67
52957;BME280;38819;42.692;23.342;2023-08-17T00:38:01;95359.19;;;23.77;63.67
52957;BME280;38819;42.692;23.342;2023-08-17T00:40:26;95362.28;;;23.72;63.86
52957;BME280;38819;42.692;23.342;2023-08-17T00:42:52;95359.88;;;23.70;63.84
52957;BME280;38819;42.692;23.342;2023-08-17T00:45:18;95364.63;;;23.70;63.98
52957;BME280;38819;42.692;23.342;2023-08-17T00:47:44;95370.91;;;23.70;63.70
52957;BME280;38819;42.692;23.342;2023-08-17T00:50:11;95364.56;;;23.66;63.64
52957;BME280;38819;42.692;23.342;2023-08-17T00:52:37;95355.50;;;23.65;63.46
52957;BME280;38819;42.692;23.342;2023-08-17T00:55:03;95358.16;;;23.58;63.72
52957;BME280;38819;42.692;23.342;2023-08-17T00:57:30;95358.16;;;23.58;63.51
52957;BME280;38819;42.692;23.342;2023-08-17T00:59:57;95354.94;;;23.53;63.40
52957;BME280;38819;42.692;23.342;2023-08-17T01:02:23;95355.34;;;23.55;63.48
52957;BME280;38819;42.692;23.342;2023-08-17T01:04:49;95357.34;;;23.54;62.88
52957;BME280;38819;42.692;23.342;2023-08-17T01:07:14;95352.56;;;23.51;62.85
52957;BME280;38819;42.692;23.342;2023-08-17T01:09:40;95349.38;;;23.49;62.59
52957;BME280;38819;42.692;23.342;2023-08-17T01:12:19;95354.94;;;23.53;62.13
52957;BME280;38819;42.692;23.342;2023-08-17T01:15:09;95350.91;;;23.46;62.44
52957;BME280;38819;42.692;23.342;2023-08-17T01:20:34;95352.47;;;23.44;62.18
52957;BME280;38819;42.692;23.342;2023-08-17T01:23:09;95355.22;;;23.44;61.90
52957;BME280;38819;42.692;23.342;2023-08-17T01:25:34;95350.44;;;23.41;62.21
52957;BME280;38819;42.692;23.342;2023-08-17T01:28:02;95351.56;;;23.36;62.04
52957;BME280;38819;42.692;23.342;2023-08-17T01:30:27;95349.19;;;23.35;61.97
52957;BME280;38819;42.692;23.342;2023-08-17T01:33:02;95344.81;;;23.34;61.79
52957;BME280;38819;42.692;23.342;2023-08-17T01:35:54;95352.66;;;23.31;61.72
52957;BME280;38819;42.692;23.342;2023-08-17T01:38:18;95348.34;;;23.30;61.45
52957;BME280;38819;42.692;23.342;2023-08-17T01:40:47;95343.81;;;23.19;61.51
52957;BME280;38819;42.692;23.342;2023-08-17T01:43:14;95341.69;;;23.08;61.58
52957;BME280;38819;42.692;23.342;2023-08-17T01:45:40;95349.63;;;23.13;61.55
52957;BME280;38819;42.692;23.342;2023-08-17T01:48:05;95343.75;;;23.15;61.57
52957;BME280;38819;42.692;23.342;2023-08-17T01:50:31;95353.69;;;23.20;61.40
52957;BME280;38819;42.692;23.342;2023-08-17T01:52:56;95341.91;;;23.23;61.21
52957;BME280;38819;42.692;23.342;2023-08-17T01:55:22;95356.44;;;23.20;61.22
52957;BME280;38819;42.692;23.342;2023-08-17T01:57:48;95347.44;;;23.23;60.99
52957;BME280;38819;42.692;23.342;2023-08-17T02:00:14;95349.88;;;23.28;60.88
52957;BME280;38819;42.692;23.342;2023-08-17T02:02:40;95343.53;;;23.24;61.06
52957;BME280;38819;42.692;23.342;2023-08-17T02:05:06;95350.59;;;23.25;60.76
52957;BME280;38819;42.692;23.342;2023-08-17T02:07:31;95344.69;;;23.23;60.82
52957;BME280;38819;42.692;23.342;2023-08-17T02:09:56;95346.66;;;23.22;60.85
52957;BME280;38819;42.692;23.342;2023-08-17T02:12:22;95349.78;;;23.21;60.90
52957;BME280;38819;42.692;23.342;2023-08-17T02:14:47;95347.34;;;23.16;61.02
52957;BME280;38819;42.692;23.342;2023-08-17T02:17:13;95341.81;;;23.16;60.68
52957;BME280;38819;42.692;23.342;2023-08-17T02:19:42;95350.50;;;23.18;60.43
52957;BME280;38819;42.692;23.342;2023-08-17T02:22:07;95346.16;;;23.17;60.35
52957;BME280;38819;42.692;23.342;2023-08-17T02:24:32;95337.47;;;23.15;59.91
52957;BME280;38819;42.692;23.342;2023-08-17T02:26:58;95337.88;;;23.17;59.79
52957;BME280;38819;42.692;23.342;2023-08-17T02:29:23;95344.25;;;23.21;59.62
52957;BME280;38819;42.692;23.342;2023-08-17T02:31:49;95350.56;;;23.21;59.61
52957;BME280;38819;42.692;23.342;2023-08-17T02:34:14;95340.63;;;23.17;59.35
52957;BME280;38819;42.692;23.342;2023-08-17T02:36:39;95343.34;;;23.13;59.19
52957;BME280;38819;42.692;23.342;2023-08-17T02:39:05;95341.69;;;23.08;59.05
52957;BME280;38819;42.692;23.342;2023-08-17T02:41:30;95342.06;;;23.07;59.51
52957;BME280;38819;42.692;23.342;2023-08-17T02:43:57;95337.66;;;23.02;59.34
52957;BME280;38819;42.692;23.342;2023-08-17T02:46:22;95333.25;;;22.98;58.98
52957;BME280;38819;42.692;23.342;2023-08-17T02:48:48;95335.28;;;23.01;58.89
52957;BME280;38819;42.692;23.342;2023-08-17T02:51:14;95337.16;;;22.97;59.11
52957;BME280;38819;42.692;23.342;2023-08-17T02:53:40;95339.50;;;22.94;58.73
52957;BME280;38819;42.692;23.342;2023-08-17T02:56:06;95338.19;;;22.88;58.58
52957;BME280;38819;42.692;23.342;2023-08-17T02:58:31;95337.06;;;22.89;58.38
52957;BME280;38819;42.692;23.342;2023-08-17T03:00:56;95335.72;;;22.80;58.75
52957;BME280;38819;42.692;23.342;2023-08-17T03:03:22;95332.13;;;22.75;58.67
52957;BME280;38819;42.692;23.342;2023-08-17T03:05:47;95332.34;;;22.67;59.00
52957;BME280;38819;42.692;23.342;2023-08-17T03:08:13;95338.22;;;22.65;58.99
52957;BME280;38819;42.692;23.342;2023-08-17T03:10:38;95341.78;;;22.66;58.97
52957;BME280;38819;42.692;23.342;2023-08-17T03:13:04;95328.03;;;22.66;58.81
52957;BME280;38819;42.692;23.342;2023-08-17T03:15:29;95331.81;;;22.57;58.96
52957;BME280;38819;42.692;23.342;2023-08-17T03:17:54;95338.53;;;22.60;58.93
52957;BME280;38819;42.692;23.342;2023-08-17T03:20:20;95340.84;;;22.58;59.21
52957;BME280;38819;42.692;23.342;2023-08-17T03:22:45;95334.16;;;22.55;59.19
52957;BME280;38819;42.692;23.342;2023-08-17T03:25:11;95330.94;;;22.53;59.35
52957;BME280;38819;42.692;23.342;2023-08-17T03:27:36;95343.97;;;22.56;59.21
52957;BME280;38819;42.692;23.342;2023-08-17T03:30:03;95341.94;;;22.53;59.25
52957;BME280;38819;42.692;23.342;2023-08-17T03:32:28;95339.56;;;22.52;59.00
52957;BME280;38819;42.692;23.342;2023-08-17T03:34:54;95339.13;;;22.50;59.42
52957;BME280;38819;42.692;23.342;2023-08-17T03:37:19;95338.66;;;22.44;59.55
52957;BME280;38819;42.692;23.342;2023-08-17T03:39:45;95340.63;;;22.44;59.64
52957;BME280;38819;42.692;23.342;2023-08-17T03:42:10;95344.47;;;22.39;59.71
52957;BME280;38819;42.692;23.342;2023-08-17T03:44:36;95343.22;;;22.36;59.56
52957;BME280;38819;42.692;23.342;2023-08-17T03:47:01;95344.03;;;22.37;59.87
52957;BME280;38819;42.692;23.342;2023-08-17T03:49:26;95350.81;;;22.43;59.55
52957;BME280;38819;42.692;23.342;2023-08-17T03:51:52;95349.91;;;22.35;59.83
52957;BME280;38819;42.692;23.342;2023-08-17T03:54:17;95353.38;;;22.32;60.17
52957;BME280;38819;42.692;23.342;2023-08-17T03:56:43;95347.47;;;22.30;59.65
52957;BME280;38819;42.692;23.342;2023-08-17T03:59:08;95349.31;;;22.26;59.34
52957;BME280;38819;42.692;23.342;2023-08-17T04:01:34;95351.41;;;22.33;59.14
52957;BME280;38819;42.692;23.342;2023-08-17T04:03:59;95356.63;;;22.38;58.90
52957;BME280;38819;42.692;23.342;2023-08-17T04:06:25;95356.63;;;22.38;59.34
52957;BME280;38819;42.692;23.342;2023-08-17T04:08:50;95350.34;;;22.37;59.59
52957;BME280;38819;42.692;23.342;2023-08-17T04:11:16;95355.41;;;22.35;59.28
52957;BME280;38819;42.692;23.342;2023-08-17T04:13:41;95359.69;;;22.33;59.45
52957;BME280;38819;42.692;23.342;2023-08-17T04:16:06;95356.25;;;22.39;59.62
52957;BME280;38819;42.692;23.342;2023-08-17T04:18:32;95359.94;;;22.47;59.78
52957;BME280;38819;42.692;23.342;2023-08-17T04:20:57;95358.28;;;22.43;59.36
52957;BME280;38819;42.692;23.342;2023-08-17T04:23:23;95363.13;;;22.49;59.71
52957;BME280;38819;42.692;23.342;2023-08-17T04:25:48;95366.59;;;22.46;59.87
52957;BME280;38819;42.692;23.342;2023-08-17T04:28:14;95357.91;;;22.25;60.28
52957;BME280;38819;42.692;23.342;2023-08-17T04:30:40;95357.56;;;22.07;60.66
52957;BME280;38819;42.692;23.342;2023-08-17T04:33:05;95355.19;;;22.05;60.42
52957;BME280;38819;42.692;23.342;2023-08-17T04:35:32;95358.16;;;22.16;60.28
52957;BME280;38819;42.692;23.342;2023-08-17T04:37:58;95356.06;;;22.09;60.25
52957;BME280;38819;42.692;23.342;2023-08-17T04:40:23;95358.88;;;21.93;61.08
52957;BME280;38819;42.692;23.342;2023-08-17T04:42:49;95360.41;;;21.71;61.90
52957;BME280;38819;42.692;23.342;2023-08-17T04:45:14;95359.75;;;21.78;62.22
52957;BME280;38819;42.692;23.342;2023-08-17T04:47:40;95356.56;;;21.76;61.89
52957;BME280;38819;42.692;23.342;2023-08-17T04:50:05;95356.22;;;21.77;62.26
52957;BME280;38819;42.692;23.342;2023-08-17T04:52:31;95358.81;;;21.70;62.37
52957;BME280;38819;42.692;23.342;2023-08-17T04:54:56;95365.50;;;21.53;62.85
52957;BME280;38819;42.692;23.342;2023-08-17T04:57:22;95353.66;;;21.49;63.18
52957;BME280;38819;42.692;23.342;2023-08-17T04:59:47;95355.63;;;21.49;62.80
52957;BME280;38819;42.692;23.342;2023-08-17T05:02:13;95352.22;;;21.55;62.73
52957;BME280;38819;42.692;23.342;2023-08-17T05:04:38;95365.09;;;21.51;62.94
52957;BME280;38819;42.692;23.342;2023-08-17T05:07:05;95360.75;;;21.50;62.64
52957;BME280;38819;42.692;23.342;2023-08-17T05:09:30;95361.53;;;21.51;62.70
52957;BME280;38819;42.692;23.342;2023-08-17T05:11:55;95354.34;;;21.46;62.43
52957;BME280;38819;42.692;23.342;2023-08-17T05:14:21;95354.88;;;21.52;62.13
52957;BME280;38819;42.692;23.342;2023-08-17T05:16:46;95359.38;;;21.60;61.87
52957;BME280;38819;42.692;23.342;2023-08-17T05:19:12;95355.97;;;21.67;62.16
52957;BME280;38819;42.692;23.342;2023-08-17T05:21:37;95362.56;;;21.81;61.44
52957;BME280;38819;42.692;23.342;2023-08-17T05:24:03;95356.66;;;21.79;61.89
52957;BME280;38819;42.692;23.342;2023-08-17T05:26:28;95354.41;;;21.85;61.99
52957;BME280;38819;42.692;23.342;2023-08-17T05:28:54;95358.31;;;21.84;62.09
52957;BME280;38819;42.692;23.342;2023-08-17T05:31:19;95357.44;;;21.80;62.21
52957;BME280;38819;42.692;23.342;2023-08-17T05:33:45;95363.22;;;21.75;62.46
52957;BME280;38819;42.692;23.342;2023-08-17T05:36:10;95357.97;;;21.86;62.36
52957;BME280;38819;42.692;23.342;2023-08-17T05:38:36;95359.47;;;21.83;62.68
52957;BME280;38819;42.692;23.342;2023-08-17T05:41:01;95359.63;;;21.90;62.05
52957;BME280;38819;42.692;23.342;2023-08-17T05:43:27;95351.66;;;22.05;62.02
52957;BME280;38819;42.692;23.342;2023-08-17T05:45:53;95359.75;;;22.17;61.14
52957;BME280;38819;42.692;23.342;2023-08-17T05:48:19;95360.59;;;22.21;61.08
52957;BME280;38819;42.692;23.342;2023-08-17T05:50:44;95364.22;;;22.25;60.57
52957;BME280;38819;42.692;23.342;2023-08-17T05:53:10;95363.72;;;22.39;60.56
52957;BME280;38819;42.692;23.342;2023-08-17T05:55:35;95359.66;;;22.52;60.34
52957;BME280;38819;42.692;23.342;2023-08-17T05:58:02;95362.25;;;22.68;59.29
52957;BME280;38819;42.692;23.342;2023-08-17T06:00:29;95370.72;;;22.79;59.90
52957;BME280;38819;42.692;23.342;2023-08-17T06:02:54;95364.41;;;22.79;61.62
52957;BME280;38819;42.692;23.342;2023-08-17T06:05:26;95360.59;;;22.87;62.51
52957;BME280;38819;42.692;23.342;2023-08-17T06:07:52;95360.28;;;22.92;63.07
52957;BME280;38819;42.692;23.342;2023-08-17T06:10:17;95368.38;;;23.04;63.02
52957;BME280;38819;42.692;23.342;2023-08-17T06:12:44;95369.38;;;23.16;63.41
52957;BME280;38819;42.692;23.342;2023-08-17T06:15:09;95366.34;;;23.24;63.65
52957;BME280;38819;42.692;23.342;2023-08-17T06:17:35;95363.75;;;23.35;63.70
52957;BME280;38819;42.692;23.342;2023-08-17T06:20:00;95357.66;;;23.49;63.64
52957;BME280;38819;42.692;23.342;2023-08-17T06:22:27;95356.84;;;23.48;63.77
52957;BME280;38819;42.692;23.342;2023-08-17T06:24:53;95355.72;;;23.53;63.63
52957;BME280;38819;42.692;23.342;2023-08-17T06:27:18;95361.00;;;23.65;63.11
52957;BME280;38819;42.692;23.342;2023-08-17T06:29:44;95359.94;;;23.74;61.74
52957;BME280;38819;42.692;23.342;2023-08-17T06:32:09;95359.94;;;23.74;61.00
52957;BME280;38819;42.692;23.342;2023-08-17T06:34:34;95359.19;;;23.77;60.84
52957;BME280;38819;42.692;23.342;2023-08-17T06:37:02;95363.31;;;23.90;61.35
52957;BME280;38819;42.692;23.342;2023-08-17T06:39:28;95368.88;;;23.94;61.54
52957;BME280;38819;42.692;23.342;2023-08-17T06:41:54;95367.72;;;23.95;60.92
52957;BME280;38819;42.692;23.342;2023-08-17T06:44:20;95374.03;;;23.95;60.97
52957;BME280;38819;42.692;23.342;2023-08-17T06:46:45;95359.88;;;23.97;60.19
52957;BME280;38819;42.692;23.342;2023-08-17T06:49:11;95369.41;;;24.03;59.56
52957;BME280;38819;42.692;23.342;2023-08-17T06:51:37;95373.47;;;24.13;58.71
52957;BME280;38819;42.692;23.342;2023-08-17T06:54:03;95373.59;;;24.27;58.08
52957;BME280;38819;42.692;23.342;2023-08-17T06:56:29;95368.97;;;24.35;57.89
52957;BME280;38819;42.692;23.342;2023-08-17T06:58:54;95371.84;;;24.46;57.68
52957;BME280;38819;42.692;23.342;2023-08-17T07:01:19;95367.13;;;24.46;57.28
52957;BME280;38819;42.692;23.342;2023-08-17T07:03:45;95364.47;;;24.57;57.13
52957;BME280;38819;42.692;23.342;2023-08-17T07:06:10;95368.09;;;24.61;56.83
52957;BME280;38819;42.692;23.342;2023-08-17T07:08:36;95369.69;;;24.66;56.81
52957;BME280;38819;42.692;23.342;2023-08-17T07:11:01;95367.38;;;24.68;56.07
52957;BME280;38819;42.692;23.342;2023-08-17T07:13:28;95374.16;;;24.77;56.27
52957;BME280;38819;42.692;23.342;2023-08-17T07:15:54;95367.50;;;24.86;56.12
52957;BME280;38819;42.692;23.342;2023-08-17T07:18:19;95365.53;;;24.83;53.21
52957;BME280;38819;42.692;23.342;2023-08-17T07:20:45;95362.78;;;24.83;54.78
52957;BME280;38819;42.692;23.342;2023-08-17T07:23:10;95362.03;;;24.89;52.81
52957;BME280;38819;42.692;23.342;2023-08-17T07:25:36;95367.22;;;24.94;52.50
52957;BME280;38819;42.692;23.342;2023-08-17T07:28:01;95363.69;;;24.98;51.06
52957;BME280;38819;42.692;23.342;2023-08-17T07:30:27;95360.56;;;25.03;51.87
52957;BME280;38819;42.692;23.342;2023-08-17T07:32:52;95356.28;;;25.12;51.39
52957;BME280;38819;42.692;23.342;2023-08-17T07:35:18;95357.53;;;25.22;51.94
52957;BME280;38819;42.692;23.342;2023-08-17T07:37:43;95363.53;;;25.28;50.58
52957;BME280;38819;42.692;23.342;2023-08-17T07:40:09;95359.66;;;25.40;50.54
52957;BME280;38819;42.692;23.342;2023-08-17T07:42:35;95358.09;;;25.42;48.28
52957;BME280;38819;42.692;23.342;2023-08-17T07:45:01;95354.59;;;25.52;49.27
52957;BME280;38819;42.692;23.342;2023-08-17T07:47:29;95355.00;;;25.51;49.08
52957;BME280;38819;42.692;23.342;2023-08-17T07:49:55;95360.97;;;25.60;48.87
52957;BME280;38819;42.692;23.342;2023-08-17T07:52:20;95358.59;;;25.62;48.46
52957;BME280;38819;42.692;23.342;2023-08-17T07:54:45;95354.66;;;25.63;47.67
52957;BME280;38819;42.692;23.342;2023-08-17T07:57:11;95352.69;;;25.67;48.64
52957;BME280;38819;42.692;23.342;2023-08-17T07:59:36;95353.16;;;25.77;48.88
52957;BME280;38819;42.692;23.342;2023-08-17T08:02:02;95352.00;;;25.78;49.04
52957;BME280;38819;42.692;23.342;2023-08-17T08:04:27;95348.84;;;25.86;48.42
52957;BME280;38819;42.692;23.342;2023-08-17T08:06:53;95337.03;;;25.89;48.22
52957;BME280;38819;42.692;23.342;2023-08-17T08:09:18;95340.19;;;25.92;47.86
52957;BME280;38819;42.692;23.342;2023-08-17T08:11:43;95339.44;;;25.98;48.14
52957;BME280;38819;42.692;23.342;2023-08-17T08:14:09;95337.09;;;26.04;47.22
52957;BME280;38819;42.692;23.342;2023-08-17T08:16:34;95329.16;;;26.02;46.98
52957;BME280;38819;42.692;23.342;2023-08-17T08:19:00;95328.41;;;26.05;45.71
52957;BME280;38819;42.692;23.342;2023-08-17T08:21:25;95327.63;;;26.09;45.55
52957;BME280;38819;42.692;23.342;2023-08-17T08:23:52;95334.31;;;26.04;45.88
52957;BME280;38819;42.692;23.342;2023-08-17T08:26:18;95331.94;;;26.06;46.11
52957;BME280;38819;42.692;23.342;2023-08-17T08:28:43;95328.47;;;26.23;46.28
52957;BME280;38819;42.692;23.342;2023-08-17T08:31:09;95333.59;;;26.29;45.81
52957;BME280;38819;42.692;23.342;2023-08-17T08:33:34;95334.00;;;26.31;46.53
52957;BME280;38819;42.692;23.342;2023-08-17T08:36:00;95337.16;;;26.33;46.55
52957;BME280;38819;42.692;23.342;2023-08-17T08:38:25;95330.47;;;26.37;47.41
52957;BME280;38819;42.692;23.342;2023-08-17T08:40:51;95334.03;;;26.45;47.28
52957;BME280;38819;42.692;23.342;2023-08-17T08:43:17;95329.69;;;26.51;47.96
52957;BME280;38819;42.692;23.342;2023-08-17T08:45:43;95335.25;;;26.62;47.14
52957;BME280;38819;42.692;23.342;2023-08-17T08:48:11;95329.34;;;26.67;46.50
52957;BME280;38819;42.692;23.342;2023-08-17T08:50:39;95327.38;;;26.64;46.83
52957;BME280;38819;42.692;23.342;2023-08-17T08:53:19;95323.41;;;26.69;46.73
52957;BME280;38819;42.692;23.342;2023-08-17T08:55:54;95321.47;;;26.76;46.47
52957;BME280;38819;42.692;23.342;2023-08-17T08:58:21;95313.91;;;26.84;46.05
52957;BME280;38819;42.692;23.342;2023-08-17T09:00:47;95315.50;;;26.92;45.29
52957;BME280;38819;42.692;23.342;2023-08-17T09:03:15;95312.72;;;26.96;44.92
52957;BME280;38819;42.692;23.342;2023-08-17T09:05:45;95310.38;;;27.02;45.54
52957;BME280;38819;42.692;23.342;2023-08-17T09:08:13;95298.88;;;27.03;45.97
52957;BME280;38819;42.692;23.342;2023-08-17T09:10:39;95288.97;;;27.16;45.03
52957;BME280;38819;42.692;23.342;2023-08-17T09:13:04;95287.72;;;27.25;45.38
52957;BME280;38819;42.692;23.342;2023-08-17T09:15:29;95293.72;;;27.30;45.21
52957;BME280;38819;42.692;23.342;2023-08-17T09:17:57;95292.91;;;27.33;44.95
52957;BME280;38819;42.692;23.342;2023-08-17T09:23:09;95288.53;;;27.43;44.24
52957;BME280;38819;42.692;23.342;2023-08-17T09:25:38;95298.81;;;27.43;43.50
52957;BME280;38819;42.692;23.342;2023-08-17T09:28:08;95282.97;;;27.40;43.81
52957;BME280;38819;42.692;23.342;2023-08-17T09:31:09;95285.34;;;27.41;44.66
52957;BME280;38819;42.692;23.342;2023-08-17T09:33:34;95287.72;;;27.50;44.64
52957;BME280;38819;42.692;23.342;2023-08-17T09:36:00;95273.03;;;27.57;43.98
52957;BME280;38819;42.692;23.342;2023-08-17T09:38:27;95260.72;;;27.61;43.26
52957;BME280;38819;42.692;23.342;2023-08-17T09:40:53;95262.69;;;27.68;43.94
52957;BME280;38819;42.692;23.342;2023-08-17T09:43:19;95266.97;;;27.80;43.58
52957;BME280;38819;42.692;23.342;2023-08-17T09:45:46;95271.34;;;27.81;42.57
52957;BME280;38819;42.692;23.342;2023-08-17T09:48:16;95266.94;;;27.90;42.51
52957;BME280;38819;42.692;23.342;2023-08-17T09:50:43;95259.81;;;27.89;42.15
52957;BME280;38819;42.692;23.342;2023-08-17T09:53:13;95247.13;;;27.92;42.11
52957;BME280;38819;42.692;23.342;2023-08-17T09:55:40;95248.31;;;27.95;40.84
52957;BME280;38819;42.692;23.342;2023-08-17T09:58:06;95248.69;;;28.00;40.23
52957;BME280;38819;42.692;23.342;2023-08-17T10:00:33;95251.00;;;28.13;40.12
52957;BME280;38819;42.692;23.342;2023-08-17T10:03:02;95249.41;;;28.15;40.06
52957;BME280;38819;42.692;23.342;2023-08-17T10:05:31;95242.59;;;28.23;39.96
52957;BME280;38819;42.692;23.342;2023-08-17T10:08:00;95245.72;;;28.29;39.18
52957;BME280;38819;42.692;23.342;2023-08-17T10:10:27;95238.50;;;28.42;39.41
52957;BME280;38819;42.692;23.342;2023-08-17T10:13:10;95237.25;;;28.51;39.26
52957;BME280;38819;42.692;23.342;2023-08-17T10:16:06;95240.34;;;28.60;38.69
52957;BME280;38819;42.692;23.342;2023-08-17T10:21:28;95234.84;;;28.56;38.21
52957;BME280;38819;42.692;23.342;2023-08-17T10:23:57;95238.44;;;28.57;38.01
52957;BME280;38819;42.692;23.342;2023-08-17T10:26:24;95230.06;;;28.60;37.69
52957;BME280;38819;42.692;23.342;2023-08-17T10:28:52;95239.53;;;28.63;38.24
52957;BME280;38819;42.692;23.342;2023-08-17T10:31:18;95238.34;;;28.64;38.27
52957;BME280;38819;42.692;23.342;2023-08-17T10:33:46;95234.72;;;28.71;38.08
52957;BME280;38819;42.692;23.342;2023-08-17T10:36:13;95229.25;;;28.63;38.36
52957;BME280;38819;42.692;23.342;2023-08-17T10:38:39;95229.13;;;28.74;38.60
52957;BME280;38819;42.692;23.342;2023-08-17T10:41:12;95227.09;;;28.78;38.99
52957;BME280;38819;42.692;23.342;2023-08-17T10:43:54;95220.28;;;28.87;37.31
52957;BME280;38819;42.692;23.342;2023-08-17T10:46:20;95224.56;;;28.95;37.48
52957;BME280;38819;42.692;23.342;2023-08-17T10:48:46;95225.75;;;28.97;36.98
52957;BME280;38819;42.692;23.342;2023-08-17T10:51:11;95222.56;;;28.99;37.83
52957;BME280;38819;42.692;23.342;2023-08-17T10:53:43;95221.34;;;29.00;38.85
52957;BME280;38819;42.692;23.342;2023-08-17T10:56:13;95210.66;;;28.95;38.83
52957;BME280;38819;42.692;23.342;2023-08-17T10:58:39;95204.28;;;28.98;38.66
52957;BME280;38819;42.692;23.342;2023-08-17T11:01:06;95205.78;;;29.06;38.88
52957;BME280;38819;42.692;23.342;2023-08-17T11:03:32;95208.16;;;29.08;38.63
52957;BME280;38819;42.692;23.342;2023-08-17T11:06:14;95207.38;;;29.07;38.01
52957;BME280;38819;42.692;23.342;2023-08-17T11:08:51;95198.16;;;29.17;37.94
52957;BME280;38819;42.692;23.342;2023-08-17T11:11:19;95202.06;;;29.24;38.25
52957;BME280;38819;42.692;23.342;2023-08-17T11:13:46;95200.75;;;29.35;38.84
52957;BME280;38819;42.692;23.342;2023-08-17T11:16:13;95194.78;;;29.33;38.06
52957;BME280;38819;42.692;23.342;2023-08-17T11:18:39;95204.75;;;29.31;38.57
52957;BME280;38819;42.692;23.342;2023-08-17T11:21:07;95199.94;;;29.35;38.13
52957;BME280;38819;42.692;23.342;2023-08-17T11:23:36;95192.72;;;29.41;37.79
52957;BME280;38819;42.692;23.342;2023-08-17T11:26:02;95193.44;;;29.45;37.81
52957;BME280;38819;42.692;23.342;2023-08-17T11:28:31;95199.69;;;29.56;37.86
52957;BME280;38819;42.692;23.342;2023-08-17T11:31:11;95189.44;;;29.50;37.35
52957;BME280;38819;42.692;23.342;2023-08-17T11:33:38;95185.50;;;29.47;37.93
52957;BME280;38819;42.692;23.342;2023-08-17T11:36:06;95188.66;;;29.49;37.61
52957;BME280;38819;42.692;23.342;2023-08-17T11:38:32;95173.44;;;29.58;38.23
52957;BME280;38819;42.692;23.342;2023-08-17T11:40:59;95165.03;;;29.61;38.25
52957;BME280;38819;42.692;23.342;2023-08-17T11:43:25;95174.50;;;29.67;38.68
52957;BME280;38819;42.692;23.342;2023-08-17T11:45:51;95172.81;;;29.77;37.56
52957;BME280;38819;42.692;23.342;2023-08-17T11:48:19;95172.28;;;29.86;37.44
52957;BME280;38819;42.692;23.342;2023-08-17T11:50:45;95169.88;;;29.88;37.54
52957;BME280;38819;42.692;23.342;2023-08-17T11:53:10;95174.97;;;29.93;37.47
52957;BME280;38819;42.692;23.342;2023-08-17T11:55:36;95165.78;;;29.96;37.53
52957;BME280;38819;42.692;23.342;2023-08-17T11:58:02;95175.91;;;29.83;37.97
52957;BME280;38819;42.692;23.342;2023-08-17T12:00:34;95175.59;;;29.77;38.31
52957;BME280;38819;42.692;23.342;2023-08-17T12:03:00;95166.09;;;29.71;37.73
52957;BME280;38819;42.692;23.342;2023-08-17T12:05:25;95174.97;;;29.62;37.97
52957;BME280;38819;42.692;23.342;2023-08-17T12:07:54;95167.41;;;29.63;38.34
52957;BME280;38819;42.692;23.342;2023-08-17T12:10:20;95168.25;;;29.60;37.88
52957;BME280;38819;42.692;23.342;2023-08-17T12:12:47;95161.53;;;29.57;37.83
52957;BME280;38819;42.692;23.342;2023-08-17T12:15:13;95160.59;;;29.67;37.86
52957;BME280;38819;42.692;23.342;2023-08-17T12:17:49;95157.81;;;29.67;38.16
52957;BME280;38819;42.692;23.342;2023-08-17T12:20:21;95147.75;;;29.73;39.77
52957;BME280;38819;42.692;23.342;2023-08-17T12:22:47;95150.97;;;29.72;40.18
52957;BME280;38819;42.692;23.342;2023-08-17T12:25:13;95149.47;;;29.67;41.09
52957;BME280;38819;42.692;23.342;2023-08-17T12:27:39;95153.81;;;29.68;42.42
52957;BME280;38819;42.692;23.342;2023-08-17T12:30:12;95149.06;;;29.65;42.60
52957;BME280;38819;42.692;23.342;2023-08-17T12:32:37;95151.44;;;29.67;42.80
52957;BME280;38819;42.692;23.342;2023-08-17T12:35:03;95143.97;;;29.60;42.77
52957;BME280;38819;42.692;23.342;2023-08-17T12:37:29;95152.84;;;29.51;42.88
52957;BME280;38819;42.692;23.342;2023-08-17T12:39:54;95158.03;;;29.49;43.20
52957;BME280;38819;42.692;23.342;2023-08-17T12:42:20;95158.16;;;29.42;43.63
52957;BME280;38819;42.692;23.342;2023-08-17T12:44:45;95147.50;;;29.33;44.12
52957;BME280;38819;42.692;23.342;2023-08-17T12:47:10;95149.13;;;29.31;43.75
52957;BME280;38819;42.692;23.342;2023-08-17T12:49:36;95150.69;;;29.32;43.08
52957;BME280;38819;42.692;23.342;2023-08-17T12:52:02;95157.13;;;29.25;43.41
52957;BME280;38819;42.692;23.342;2023-08-17T12:54:27;95148.41;;;29.23;43.92
52957;BME280;38819;42.692;23.342;2023-08-17T12:56:53;95157.47;;;29.31;44.00